createdAt,value
2022-09-12T00:00:00.148Z,4.9
2022-09-12T00:05:00.362Z,5.0
2022-09-12T00:10:00.155Z,4.7
2022-09-12T00:15:00.176Z,4.8
2022-09-12T00:20:00.205Z,5.7
2022-09-12T00:25:00.190Z,5.2
2022-09-12T00:30:00.177Z,5.7
2022-09-12T00:35:00.207Z,5.3
2022-09-12T00:40:00.299Z,7.4
2022-09-12T00:45:00.198Z,8.1
2022-09-12T00:50:00.271Z,8.5
2022-09-12T00:55:00.198Z,6.8
2022-09-12T01:00:00.603Z,6.1
2022-09-12T01:05:00.169Z,5.8
2022-09-12T01:10:00.190Z,5.7
2022-09-12T01:15:00.195Z,5.7
2022-09-12T01:20:00.195Z,5.1
2022-09-12T01:25:00.166Z,5.6
2022-09-12T01:30:00.174Z,6.2
2022-09-12T01:35:00.176Z,6.0
2022-09-12T01:40:00.292Z,5.4
2022-09-12T01:45:00.204Z,5.5
2022-09-12T01:50:00.169Z,6.0
2022-09-12T01:55:00.185Z,5.7
2022-09-12T02:00:00.178Z,6.6
2022-09-12T02:05:00.175Z,6.5
2022-09-12T02:10:00.179Z,5.9
2022-09-12T02:15:00.178Z,6.0
2022-09-12T02:20:00.175Z,6.4
2022-09-12T02:25:00.164Z,6.3
2022-09-12T02:30:00.183Z,6.4
2022-09-12T02:35:00.180Z,6.6
2022-09-12T02:40:00.301Z,12.3
2022-09-12T02:45:00.180Z,7.4
2022-09-12T02:50:00.186Z,7.3
2022-09-12T02:55:00.177Z,7.0
2022-09-12T03:00:00.204Z,8.1
2022-09-12T03:05:00.164Z,6.3
2022-09-12T03:10:00.156Z,6.6
2022-09-12T03:15:00.184Z,7.8
2022-09-12T03:20:00.182Z,7.1
2022-09-12T03:25:00.171Z,7.8
2022-09-12T03:30:00.206Z,9.3
2022-09-12T03:35:00.181Z,8.6
2022-09-12T03:40:00.381Z,10.1
2022-09-12T03:45:00.156Z,11.5
2022-09-12T03:50:00.202Z,11.6
2022-09-12T03:55:00.172Z,13.0
2022-09-12T04:00:00.339Z,12.5
2022-09-12T04:05:00.190Z,12.7
2022-09-12T04:10:00.200Z,11.2
2022-09-12T04:15:00.340Z,13.0
2022-09-12T04:20:00.212Z,12.1
2022-09-12T04:25:00.153Z,13.4
2022-09-12T04:30:00.182Z,13.7
2022-09-12T04:35:00.194Z,14.3
2022-09-12T04:40:00.321Z,12.6
2022-09-12T04:45:00.305Z,13.3
2022-09-12T04:50:00.162Z,15.1
2022-09-12T04:55:00.163Z,14.9
2022-09-12T05:00:02.841Z,14.4
2022-09-12T05:05:00.179Z,16.5
2022-09-12T05:10:00.175Z,16.3
2022-09-12T05:15:00.198Z,16.4
2022-09-12T05:20:00.180Z,14.6
2022-09-12T05:25:00.171Z,16.1
2022-09-12T05:30:00.196Z,15.6
2022-09-12T05:35:00.171Z,15.7
2022-09-12T05:40:00.270Z,15.4
2022-09-12T05:45:00.170Z,15.2
2022-09-12T05:50:00.178Z,14.9
2022-09-12T05:55:00.173Z,13.7
2022-09-12T06:00:00.192Z,14.9
2022-09-12T06:05:00.153Z,13.4
2022-09-12T06:10:00.177Z,12.7
2022-09-12T06:15:00.172Z,12.8
2022-09-12T06:20:00.197Z,13.9
2022-09-12T06:25:00.183Z,13.2
2022-09-12T06:30:00.172Z,11.8
2022-09-12T06:35:00.169Z,11.8
2022-09-12T06:40:00.303Z,10.7
2022-09-12T06:45:00.155Z,11.1
2022-09-12T06:50:00.197Z,9.9
2022-09-12T06:55:00.169Z,10.1
2022-09-12T07:00:00.179Z,9.0
2022-09-12T07:05:00.184Z,9.8
2022-09-12T07:10:00.180Z,8.4
2022-09-12T07:15:00.171Z,9.0
2022-09-12T07:20:00.245Z,8.7
2022-09-12T07:25:00.198Z,8.0
2022-09-12T07:30:00.172Z,7.0
2022-09-12T07:35:00.164Z,6.8
2022-09-12T07:40:00.406Z,7.0
2022-09-12T07:45:00.184Z,6.8
2022-09-12T07:50:00.174Z,6.3
2022-09-12T07:55:00.343Z,6.3
2022-09-12T08:00:00.161Z,6.9
2022-09-12T08:05:00.168Z,6.7
2022-09-12T08:10:00.219Z,6.3
2022-09-12T08:15:00.195Z,7.4
2022-09-12T08:20:00.169Z,6.5
2022-09-12T08:25:00.168Z,6.5
2022-09-12T08:30:00.198Z,5.7
2022-09-12T08:35:00.171Z,4.9
2022-09-12T08:40:00.257Z,4.3
2022-09-12T08:45:00.200Z,4.7
2022-09-12T08:50:00.188Z,4.0
2022-09-12T08:55:00.180Z,4.7
2022-09-12T09:00:00.161Z,7.0
2022-09-12T09:05:00.161Z,4.5
2022-09-12T09:10:00.222Z,4.7
2022-09-12T09:15:00.181Z,4.0
2022-09-12T09:20:00.184Z,3.8
2022-09-12T09:25:00.181Z,3.7
2022-09-12T09:30:00.190Z,4.0
2022-09-12T09:35:00.202Z,3.8
2022-09-12T09:40:00.269Z,3.8
2022-09-12T09:45:00.181Z,3.7
2022-09-12T09:50:00.183Z,3.6
2022-09-12T09:55:00.178Z,3.6
2022-09-12T10:00:00.196Z,3.0
2022-09-12T10:05:00.145Z,3.4
2022-09-12T10:10:00.175Z,4.3
2022-09-12T10:15:00.187Z,2.5
2022-09-12T10:20:20.039Z,2.2
2022-09-12T10:25:00.180Z,2.0
2022-09-12T10:30:00.273Z,1.4
2022-09-12T10:35:00.190Z,1.6
2022-09-12T10:40:00.271Z,1.9
2022-09-12T10:45:00.195Z,1.7
2022-09-12T10:50:00.185Z,1.0
2022-09-12T10:55:00.185Z,1.4
2022-09-12T11:00:00.206Z,1.1
2022-09-12T11:05:00.196Z,1.0
2022-09-12T11:10:00.164Z,1.0
2022-09-12T11:15:00.188Z,1.0
2022-09-12T11:20:00.200Z,0.9
2022-09-12T11:25:00.199Z,1.1
2022-09-12T11:30:00.206Z,1.1
2022-09-12T11:35:00.207Z,1.7
2022-09-12T11:40:00.278Z,1.2
2022-09-12T11:45:00.197Z,1.7
2022-09-12T11:50:00.179Z,1.5
2022-09-12T11:55:00.168Z,1.3
2022-09-12T12:00:00.233Z,1.4
2022-09-12T12:05:00.342Z,3.1
2022-09-12T12:10:00.171Z,1.7
2022-09-12T12:15:00.188Z,1.6
2022-09-12T12:20:05.605Z,1.8
2022-09-12T12:25:00.173Z,1.2
2022-09-12T12:30:00.308Z,3.1
2022-09-12T12:35:00.175Z,1.6
2022-09-12T12:40:00.375Z,1.8
2022-09-12T12:45:00.177Z,3.1
2022-09-12T12:50:00.294Z,12.5
2022-09-12T12:55:00.153Z,2.7
2022-09-12T13:00:00.376Z,2.1
2022-09-12T13:05:00.473Z,1.8
2022-09-12T13:10:00.184Z,1.4
2022-09-12T13:15:00.151Z,0.9
2022-09-12T13:20:23.716Z,1.4
2022-09-12T13:25:00.151Z,1.2
2022-09-12T13:30:00.206Z,1.5
2022-09-12T13:35:00.267Z,1.4
2022-09-12T13:40:00.328Z,1.3
2022-09-12T13:45:00.451Z,1.6
2022-09-12T13:50:00.270Z,1.4
2022-09-12T13:55:00.348Z,1.8
2022-09-12T14:00:00.203Z,1.8
2022-09-12T14:05:00.296Z,1.6
2022-09-12T14:10:00.171Z,2.4
2022-09-12T14:15:00.212Z,2.6
2022-09-12T14:20:00.209Z,2.4
2022-09-12T14:25:00.212Z,2.3
2022-09-12T14:30:00.174Z,2.3
2022-09-12T14:35:00.216Z,2.3
2022-09-12T14:40:00.272Z,3.1
2022-09-12T14:45:00.178Z,2.7
2022-09-12T14:50:00.207Z,3.4
2022-09-12T14:55:00.185Z,2.8
2022-09-12T15:00:00.190Z,2.4
2022-09-12T15:05:00.344Z,2.2
2022-09-12T15:10:00.149Z,4.4
2022-09-12T15:15:00.354Z,2.8
2022-09-12T15:20:00.199Z,2.7
2022-09-12T15:25:00.200Z,3.2
2022-09-12T15:30:00.260Z,3.1
2022-09-12T15:35:00.164Z,2.9
2022-09-12T15:40:00.347Z,2.5
2022-09-12T15:45:02.500Z,3.0
2022-09-12T15:50:00.340Z,2.4
2022-09-12T15:55:00.165Z,2.7
2022-09-12T16:00:00.203Z,2.4
2022-09-12T16:05:00.184Z,2.9
2022-09-12T16:10:00.250Z,2.9
2022-09-12T16:15:00.180Z,2.8
2022-09-12T16:20:00.184Z,2.9
2022-09-12T16:25:00.161Z,2.9
2022-09-12T16:30:00.187Z,4.4
2022-09-12T16:35:00.197Z,7.5
2022-09-12T16:40:00.313Z,3.2
2022-09-12T16:45:00.164Z,2.8
2022-09-12T16:50:00.445Z,3.3
2022-09-12T16:55:00.146Z,3.2
2022-09-12T17:00:00.220Z,2.7
2022-09-12T17:05:00.146Z,3.4
2022-09-12T17:10:00.201Z,3.0
2022-09-12T17:15:00.168Z,5.1
2022-09-12T17:20:00.191Z,4.8
2022-09-12T17:25:00.166Z,6.4
2022-09-12T17:30:00.373Z,6.0
2022-09-12T17:35:00.147Z,4.7
2022-09-12T17:40:00.291Z,5.6
2022-09-12T17:45:00.190Z,5.0
2022-09-12T17:50:27.478Z,4.6
2022-09-12T17:55:00.195Z,4.9
2022-09-12T18:00:00.183Z,6.5
2022-09-12T18:05:00.178Z,5.9
2022-09-12T18:10:00.191Z,5.7
2022-09-12T18:15:00.173Z,5.4
2022-09-12T18:20:00.176Z,5.9
2022-09-12T18:25:00.171Z,5.3
2022-09-12T18:30:20.065Z,5.2
2022-09-12T18:35:00.173Z,5.1
2022-09-12T18:40:00.389Z,5.4
2022-09-12T18:45:00.174Z,4.9
2022-09-12T18:50:00.179Z,4.8
2022-09-12T18:55:00.211Z,5.1
2022-09-12T19:00:00.181Z,5.6
2022-09-12T19:05:00.169Z,5.7
2022-09-12T19:10:00.191Z,5.0
2022-09-12T19:15:00.186Z,5.0
2022-09-12T19:20:00.205Z,5.7
2022-09-12T19:25:00.202Z,5.1
2022-09-12T19:30:00.192Z,5.5
2022-09-12T19:35:00.143Z,6.1
2022-09-12T19:40:00.267Z,5.5
2022-09-12T19:45:00.181Z,5.8
2022-09-12T19:50:00.205Z,6.1
2022-09-12T19:55:00.155Z,6.2
2022-09-12T20:00:00.201Z,5.1
2022-09-12T20:05:00.149Z,5.8
2022-09-12T20:10:00.236Z,5.5
2022-09-12T20:15:00.166Z,5.5
2022-09-12T20:20:00.189Z,5.1
2022-09-12T20:25:00.195Z,5.9
2022-09-12T20:30:00.194Z,5.6
2022-09-12T20:35:00.159Z,5.2
2022-09-12T20:40:00.296Z,4.9
2022-09-12T20:45:00.189Z,5.8
2022-09-12T20:50:00.169Z,4.9
2022-09-12T20:55:00.188Z,4.8
2022-09-12T21:00:00.184Z,4.4
2022-09-12T21:05:00.140Z,4.9
2022-09-12T21:10:00.203Z,5.4
2022-09-12T21:15:00.181Z,4.2
2022-09-12T21:20:00.196Z,5.0
2022-09-12T21:25:00.145Z,5.1
2022-09-12T21:30:00.188Z,5.3
2022-09-12T21:35:00.145Z,4.3
2022-09-12T21:40:00.335Z,4.5
2022-09-12T21:45:00.196Z,5.1
2022-09-12T21:50:00.225Z,5.0
2022-09-12T21:55:00.156Z,3.9
2022-09-12T22:00:00.206Z,4.3
2022-09-12T22:05:00.157Z,3.4
2022-09-12T22:10:00.184Z,3.4
2022-09-12T22:15:08.905Z,3.7
2022-09-12T22:20:00.160Z,3.7
2022-09-12T22:25:00.168Z,3.9
2022-09-12T22:30:00.209Z,3.8
2022-09-12T22:35:00.152Z,3.9
2022-09-12T22:40:00.307Z,3.7
2022-09-12T22:45:00.199Z,4.5
2022-09-12T22:50:00.197Z,3.9
2022-09-12T22:55:00.160Z,4.6
2022-09-12T23:00:00.165Z,4.4
2022-09-12T23:05:00.151Z,4.2
2022-09-12T23:10:00.210Z,4.0
2022-09-12T23:15:00.193Z,3.8
2022-09-12T23:20:00.157Z,3.6
2022-09-12T23:25:00.316Z,3.5
2022-09-12T23:30:00.180Z,3.3
2022-09-12T23:35:00.326Z,3.4
2022-09-12T23:40:00.207Z,3.4
2022-09-12T23:45:00.340Z,3.4
2022-09-12T23:50:00.166Z,3.6
2022-09-12T23:55:00.166Z,3.7
